createdAt,value
2019-03-25T00:00:20.903Z,19.16
2019-03-25T00:01:20.644Z,19.16
2019-03-25T00:02:20.671Z,19.15
2019-03-25T00:03:20.753Z,19.15
2019-03-25T00:04:20.739Z,19.14
2019-03-25T00:05:20.765Z,19.13
2019-03-25T00:06:20.688Z,19.13
2019-03-25T00:07:20.713Z,19.12
2019-03-25T00:08:20.873Z,19.12
2019-03-25T00:09:20.712Z,19.12
2019-03-25T00:10:20.742Z,19.11
2019-03-25T00:11:20.853Z,19.1
2019-03-25T00:12:20.795Z,19.1
2019-03-25T00:13:20.840Z,19.11
2019-03-25T00:14:20.993Z,19.09
2019-03-25T00:15:20.888Z,19.11
2019-03-25T00:16:20.856Z,19.09
2019-03-25T00:17:20.845Z,19.09
2019-03-25T00:18:20.843Z,19.08
2019-03-25T00:19:20.888Z,19.07
2019-03-25T00:20:20.669Z,19.08
2019-03-25T00:21:20.829Z,19.07
2019-03-25T00:22:20.798Z,19.06
2019-03-25T00:23:20.811Z,19.07
2019-03-25T00:24:20.819Z,19.07
2019-03-25T00:25:20.761Z,19.07
2019-03-25T00:26:20.803Z,19.07
2019-03-25T00:27:20.738Z,19.07
2019-03-25T00:28:20.822Z,19.06
2019-03-25T00:29:20.780Z,19.06
2019-03-25T00:30:20.815Z,19.06
2019-03-25T00:31:20.848Z,19.05
2019-03-25T00:32:20.848Z,19.06
2019-03-25T00:33:20.845Z,19.05
2019-03-25T00:34:20.886Z,19.05
2019-03-25T00:35:21.164Z,19.03
2019-03-25T00:36:21.273Z,19.04
2019-03-25T00:37:21.279Z,19.03
2019-03-25T00:38:20.778Z,19.02
2019-03-25T00:39:20.646Z,19.01
2019-03-25T00:40:20.772Z,19.02
2019-03-25T00:41:20.662Z,19.01
2019-03-25T00:42:20.666Z,19.02
2019-03-25T00:43:20.819Z,19.01
2019-03-25T00:44:20.701Z,19.01
2019-03-25T00:45:20.751Z,19.01
2019-03-25T00:46:20.748Z,19.01
2019-03-25T00:47:20.731Z,19
2019-03-25T00:48:20.768Z,19.01
2019-03-25T00:49:20.915Z,19
2019-03-25T00:50:20.892Z,19
2019-03-25T00:51:20.794Z,19
2019-03-25T00:52:20.856Z,19
2019-03-25T00:53:20.835Z,19
2019-03-25T00:54:20.858Z,18.99
2019-03-25T00:55:20.984Z,18.97
2019-03-25T00:56:20.687Z,18.98
2019-03-25T00:57:20.725Z,18.97
2019-03-25T00:58:20.790Z,18.98
2019-03-25T00:59:20.786Z,18.97
2019-03-25T01:00:20.795Z,18.98
2019-03-25T01:01:20.894Z,18.97
2019-03-25T01:02:20.739Z,18.97
2019-03-25T01:03:20.856Z,18.96
2019-03-25T01:04:20.791Z,18.96
2019-03-25T01:05:20.777Z,18.95
2019-03-25T01:06:20.893Z,18.96
2019-03-25T01:07:20.827Z,18.96
2019-03-25T01:08:20.835Z,18.95
2019-03-25T01:09:20.843Z,18.94
2019-03-25T01:10:20.860Z,18.94
2019-03-25T01:11:20.949Z,18.95
2019-03-25T01:12:20.869Z,18.94
2019-03-25T01:13:20.934Z,18.94
2019-03-25T01:14:20.608Z,18.93
2019-03-25T01:15:20.803Z,18.93
2019-03-25T01:16:20.785Z,18.93
2019-03-25T01:17:20.656Z,18.93
2019-03-25T01:18:20.637Z,18.92
2019-03-25T01:19:20.699Z,18.92
2019-03-25T01:20:20.861Z,18.92
2019-03-25T01:21:20.708Z,18.92
2019-03-25T01:22:20.790Z,18.92
2019-03-25T01:23:20.743Z,18.92
2019-03-25T01:24:20.894Z,18.91
2019-03-25T01:25:20.930Z,18.91
2019-03-25T01:26:20.865Z,18.89
2019-03-25T01:27:20.782Z,18.91
2019-03-25T01:28:20.975Z,18.9
2019-03-25T01:29:20.798Z,18.9
2019-03-25T01:30:20.814Z,18.91
2019-03-25T01:31:20.961Z,18.91
2019-03-25T01:32:20.939Z,18.9
2019-03-25T01:33:20.628Z,18.91
2019-03-25T01:34:20.683Z,18.9
2019-03-25T01:35:20.674Z,18.89
2019-03-25T01:36:20.667Z,18.89
2019-03-25T01:37:20.810Z,18.89
2019-03-25T01:38:20.691Z,18.89
2019-03-25T01:39:20.771Z,18.9
2019-03-25T01:40:20.747Z,18.89
2019-03-25T01:41:20.987Z,18.87
2019-03-25T01:42:20.786Z,18.88
2019-03-25T01:43:20.872Z,18.87
2019-03-25T01:44:20.828Z,18.87
2019-03-25T01:45:20.871Z,18.86
2019-03-25T01:46:20.819Z,18.86
2019-03-25T01:47:21.064Z,18.86
2019-03-25T01:48:20.904Z,18.87
2019-03-25T01:49:20.863Z,18.86
2019-03-25T01:50:20.831Z,18.86
2019-03-25T01:51:20.865Z,18.85
2019-03-25T01:52:20.604Z,18.85
2019-03-25T01:53:20.593Z,18.84
2019-03-25T01:54:20.679Z,18.84
2019-03-25T01:55:20.653Z,18.83
2019-03-25T01:56:20.623Z,18.83
2019-03-25T01:57:20.734Z,18.84
2019-03-25T01:58:20.700Z,18.84
2019-03-25T01:59:20.693Z,18.84
2019-03-25T02:00:20.695Z,18.83
2019-03-25T02:01:20.859Z,18.83
2019-03-25T02:02:21.061Z,18.83
2019-03-25T02:03:21.182Z,18.82
2019-03-25T02:04:20.775Z,18.82
2019-03-25T02:05:20.755Z,18.83
2019-03-25T02:06:20.910Z,18.81
2019-03-25T02:07:20.823Z,18.82
2019-03-25T02:08:20.823Z,18.81
2019-03-25T02:09:20.940Z,18.81
2019-03-25T02:10:20.871Z,18.81
2019-03-25T02:11:22.267Z,18.8
2019-03-25T02:12:20.636Z,18.8
2019-03-25T02:13:20.731Z,18.8
2019-03-25T02:14:20.781Z,18.8
2019-03-25T02:15:20.654Z,18.8
2019-03-25T02:16:20.715Z,18.8
2019-03-25T02:17:20.712Z,18.78
2019-03-25T02:18:20.699Z,18.78
2019-03-25T02:19:20.754Z,18.78
2019-03-25T02:20:26.111Z,18.78
2019-03-25T02:21:20.852Z,18.77
2019-03-25T02:22:20.805Z,18.77
2019-03-25T02:23:20.772Z,18.77
2019-03-25T02:24:21.134Z,18.79
2019-03-25T02:25:25.521Z,18.78
2019-03-25T02:26:20.829Z,18.77
2019-03-25T02:27:20.983Z,18.77
2019-03-25T02:28:20.876Z,18.77
2019-03-25T02:29:20.579Z,18.76
2019-03-25T02:30:20.533Z,18.77
2019-03-25T02:31:20.646Z,18.77
2019-03-25T02:32:20.646Z,18.76
2019-03-25T02:33:20.704Z,18.75
2019-03-25T02:34:20.672Z,18.75
2019-03-25T02:35:20.763Z,18.75
2019-03-25T02:36:20.699Z,18.75
2019-03-25T02:37:20.717Z,18.76
2019-03-25T02:38:20.673Z,18.74
2019-03-25T02:39:20.875Z,18.74
2019-03-25T02:40:20.813Z,18.74
2019-03-25T02:41:20.736Z,18.75
2019-03-25T02:42:20.753Z,18.74
2019-03-25T02:43:20.760Z,18.74
2019-03-25T02:44:20.843Z,18.74
2019-03-25T02:45:20.776Z,18.74
2019-03-25T02:46:21.166Z,18.73
2019-03-25T02:47:20.597Z,18.74
2019-03-25T02:48:20.608Z,18.73
2019-03-25T02:49:20.653Z,18.73
2019-03-25T02:50:20.642Z,18.73
2019-03-25T02:51:20.656Z,18.73
2019-03-25T02:52:20.701Z,18.72
2019-03-25T02:53:20.676Z,18.72
2019-03-25T02:54:20.703Z,18.71
2019-03-25T02:55:20.708Z,18.71
2019-03-25T02:56:20.729Z,18.71
2019-03-25T02:57:20.722Z,18.71
2019-03-25T02:58:20.927Z,18.71
2019-03-25T02:59:20.870Z,18.71
2019-03-25T03:00:20.780Z,18.7
2019-03-25T03:01:20.798Z,18.71
2019-03-25T03:02:20.879Z,18.7
2019-03-25T03:03:20.904Z,18.7
2019-03-25T03:04:20.840Z,18.7
2019-03-25T03:05:20.836Z,18.7
2019-03-25T03:06:20.577Z,18.7
2019-03-25T03:07:20.631Z,18.7
2019-03-25T03:08:20.721Z,18.68
2019-03-25T03:09:20.590Z,18.69
2019-03-25T03:10:20.683Z,18.69
2019-03-25T03:11:20.617Z,18.69
2019-03-25T03:12:20.756Z,18.68
2019-03-25T03:13:20.770Z,18.68
2019-03-25T03:14:20.796Z,18.67
2019-03-25T03:15:20.839Z,18.68
2019-03-25T03:16:20.720Z,18.68
2019-03-25T03:17:20.649Z,18.67
2019-03-25T03:18:20.770Z,18.67
2019-03-25T03:19:20.773Z,18.67
2019-03-25T03:20:20.786Z,18.66
2019-03-25T03:21:20.751Z,18.67
2019-03-25T03:22:20.756Z,18.66
2019-03-25T03:23:20.774Z,18.66
2019-03-25T03:24:20.682Z,18.66
2019-03-25T03:25:20.773Z,18.65
2019-03-25T03:26:20.638Z,18.66
2019-03-25T03:27:20.729Z,18.67
2019-03-25T03:28:20.663Z,18.67
2019-03-25T03:29:20.730Z,18.66
2019-03-25T03:30:20.730Z,18.65
2019-03-25T03:31:20.811Z,18.65
2019-03-25T03:32:20.712Z,18.64
2019-03-25T03:33:20.734Z,18.64
2019-03-25T03:34:20.818Z,18.64
2019-03-25T03:35:20.776Z,18.64
2019-03-25T03:36:20.826Z,18.65
2019-03-25T03:37:20.787Z,18.64
2019-03-25T03:38:20.789Z,18.63
2019-03-25T03:39:20.810Z,18.62
2019-03-25T03:40:20.922Z,18.63
2019-03-25T03:41:20.795Z,18.63
2019-03-25T03:42:20.947Z,18.63
2019-03-25T03:43:20.583Z,18.62
2019-03-25T03:44:20.642Z,18.63
2019-03-25T03:45:20.603Z,18.63
2019-03-25T03:46:20.619Z,18.61
2019-03-25T03:47:20.600Z,18.62
2019-03-25T03:48:20.618Z,18.61
2019-03-25T03:49:20.674Z,18.62
2019-03-25T03:50:21.036Z,18.62
2019-03-25T03:51:20.841Z,18.62
2019-03-25T03:52:20.733Z,18.63
2019-03-25T03:53:20.667Z,18.61
2019-03-25T03:54:20.685Z,18.61
2019-03-25T03:55:20.886Z,18.61
2019-03-25T03:56:20.713Z,18.6
2019-03-25T03:57:20.740Z,18.6
2019-03-25T03:58:20.838Z,18.6
2019-03-25T03:59:20.864Z,18.59
2019-03-25T04:00:20.772Z,18.6
2019-03-25T04:01:20.807Z,18.6
2019-03-25T04:02:20.681Z,18.59
2019-03-25T04:03:20.752Z,18.59
2019-03-25T04:04:20.641Z,18.59
2019-03-25T04:05:20.738Z,18.58
2019-03-25T04:06:20.664Z,18.59
2019-03-25T04:07:20.705Z,18.58
2019-03-25T04:08:20.674Z,18.58
2019-03-25T04:09:20.676Z,18.59
2019-03-25T04:10:20.705Z,18.58
2019-03-25T04:11:20.758Z,18.58
2019-03-25T04:12:20.942Z,18.57
2019-03-25T04:13:21.092Z,18.57
2019-03-25T04:14:20.843Z,18.57
2019-03-25T04:15:20.770Z,18.58
2019-03-25T04:16:20.831Z,18.57
2019-03-25T04:17:20.779Z,18.58
2019-03-25T04:18:20.872Z,18.57
2019-03-25T04:19:20.828Z,18.57
2019-03-25T04:20:20.529Z,18.56
2019-03-25T04:21:20.599Z,18.57
2019-03-25T04:22:20.592Z,18.55
2019-03-25T04:23:20.652Z,18.54
2019-03-25T04:24:20.599Z,18.54
2019-03-25T04:25:20.664Z,18.54
2019-03-25T04:26:28.004Z,18.55
2019-03-25T04:27:20.647Z,18.55
2019-03-25T04:28:20.652Z,18.55
2019-03-25T04:29:20.653Z,18.54
2019-03-25T04:30:20.685Z,18.54
2019-03-25T04:31:20.724Z,18.53
2019-03-25T04:32:20.673Z,18.53
2019-03-25T04:33:20.698Z,18.54
2019-03-25T04:34:20.813Z,18.54
2019-03-25T04:35:20.707Z,18.54
2019-03-25T04:36:20.860Z,18.54
2019-03-25T04:37:20.896Z,18.53
2019-03-25T04:38:20.773Z,18.54
2019-03-25T04:39:20.955Z,18.54
2019-03-25T04:40:20.575Z,18.54
2019-03-25T04:41:20.699Z,18.55
2019-03-25T04:42:20.588Z,18.55
2019-03-25T04:43:20.729Z,18.55
2019-03-25T04:44:20.644Z,18.56
2019-03-25T04:45:20.626Z,18.56
2019-03-25T04:46:20.788Z,18.57
2019-03-25T04:47:20.672Z,18.58
2019-03-25T04:48:20.677Z,18.58
2019-03-25T04:49:20.753Z,18.58
2019-03-25T04:50:20.825Z,18.59
2019-03-25T04:51:20.729Z,18.6
2019-03-25T04:52:20.758Z,18.61
2019-03-25T04:53:21.019Z,18.63
2019-03-25T04:54:20.772Z,18.64
2019-03-25T04:55:21.497Z,18.65
2019-03-25T04:56:21.062Z,18.66
2019-03-25T04:57:20.898Z,18.67
2019-03-25T04:58:20.563Z,18.68
2019-03-25T04:59:20.528Z,18.69
2019-03-25T05:00:20.556Z,18.7
2019-03-25T05:01:20.591Z,18.72
2019-03-25T05:02:20.598Z,18.74
2019-03-25T05:03:20.586Z,18.75
2019-03-25T05:04:20.615Z,18.77
2019-03-25T05:05:20.721Z,18.79
2019-03-25T05:06:20.621Z,18.82
2019-03-25T05:07:20.874Z,18.83
2019-03-25T05:08:20.640Z,18.85
2019-03-25T05:09:20.646Z,18.87
2019-03-25T05:10:20.683Z,18.88
2019-03-25T05:11:30.231Z,18.91
2019-03-25T05:12:20.907Z,18.92
2019-03-25T05:13:20.774Z,18.93
2019-03-25T05:14:20.826Z,18.96
2019-03-25T05:15:20.738Z,18.96
2019-03-25T05:16:20.791Z,18.99
2019-03-25T05:17:20.657Z,19.01
2019-03-25T05:18:20.632Z,19.02
2019-03-25T05:19:20.606Z,19.03
2019-03-25T05:20:20.563Z,19.05
2019-03-25T05:21:20.949Z,19.07
2019-03-25T05:22:20.733Z,19.09
2019-03-25T05:23:20.623Z,19.1
2019-03-25T05:24:20.634Z,19.11
2019-03-25T05:25:20.681Z,19.13
2019-03-25T05:26:20.728Z,19.15
2019-03-25T05:27:21.034Z,19.16
2019-03-25T05:28:20.838Z,19.17
2019-03-25T05:29:20.697Z,19.18
2019-03-25T05:30:22.894Z,19.19
2019-03-25T05:31:20.761Z,19.21
2019-03-25T05:32:20.739Z,19.22
2019-03-25T05:33:20.757Z,19.22
2019-03-25T05:34:20.795Z,19.24
2019-03-25T05:35:20.843Z,19.25
2019-03-25T05:36:20.508Z,19.27
2019-03-25T05:37:20.537Z,19.27
2019-03-25T05:38:20.528Z,19.28
2019-03-25T05:39:20.537Z,19.29
2019-03-25T05:40:20.609Z,19.3
2019-03-25T05:41:20.668Z,19.31
2019-03-25T05:42:20.693Z,19.32
2019-03-25T05:43:21.186Z,19.31
2019-03-25T05:44:20.618Z,19.32
2019-03-25T05:45:20.655Z,19.34
2019-03-25T05:46:20.647Z,19.33
2019-03-25T05:47:20.652Z,19.35
2019-03-25T05:48:20.689Z,19.35
2019-03-25T05:49:20.799Z,19.35
2019-03-25T05:50:20.706Z,19.35
2019-03-25T05:51:20.711Z,19.37
2019-03-25T05:52:20.724Z,19.37
2019-03-25T05:53:20.737Z,19.38
2019-03-25T05:54:20.784Z,19.38
2019-03-25T05:55:20.550Z,19.38
2019-03-25T05:56:20.685Z,19.39
2019-03-25T05:57:20.593Z,19.38
2019-03-25T05:58:20.615Z,19.4
2019-03-25T05:59:20.622Z,19.4
2019-03-25T06:00:20.757Z,19.39
2019-03-25T06:01:20.639Z,19.4
2019-03-25T06:02:20.731Z,19.4
2019-03-25T06:03:20.640Z,19.41
2019-03-25T06:04:20.781Z,19.41
2019-03-25T06:05:20.663Z,19.41
2019-03-25T06:06:20.699Z,19.41
2019-03-25T06:07:20.747Z,19.41
2019-03-25T06:08:20.681Z,19.4
2019-03-25T06:09:20.859Z,19.41
2019-03-25T06:10:20.748Z,19.41
2019-03-25T06:11:20.735Z,19.41
2019-03-25T06:12:20.893Z,19.41
2019-03-25T06:13:20.525Z,19.41
2019-03-25T06:14:20.619Z,19.41
2019-03-25T06:15:20.517Z,19.41
2019-03-25T06:16:20.565Z,19.41
2019-03-25T06:17:20.551Z,19.41
2019-03-25T06:18:20.610Z,19.4
2019-03-25T06:19:20.632Z,19.41
2019-03-25T06:20:20.664Z,19.41
2019-03-25T06:21:20.597Z,19.4
2019-03-25T06:22:20.860Z,19.4
2019-03-25T06:23:20.639Z,19.4
2019-03-25T06:24:20.668Z,19.4
2019-03-25T06:25:20.671Z,19.39
2019-03-25T06:26:20.827Z,19.39
2019-03-25T06:27:20.849Z,19.39
2019-03-25T06:28:20.723Z,19.39
2019-03-25T06:29:20.806Z,19.39
2019-03-25T06:30:20.821Z,19.39
2019-03-25T06:31:20.573Z,19.38
2019-03-25T06:32:20.564Z,19.37
2019-03-25T06:33:20.639Z,19.38
2019-03-25T06:34:20.594Z,19.38
2019-03-25T06:35:20.567Z,19.38
2019-03-25T06:36:20.572Z,19.38
2019-03-25T06:37:20.686Z,19.38
2019-03-25T06:38:20.606Z,19.37
2019-03-25T06:39:20.621Z,19.37
2019-03-25T06:40:20.714Z,19.35
2019-03-25T06:41:20.648Z,19.36
2019-03-25T06:42:20.735Z,19.36
2019-03-25T06:43:21.136Z,19.36
2019-03-25T06:44:21.025Z,19.36
2019-03-25T06:45:21.047Z,19.35
2019-03-25T06:46:22.211Z,19.35
2019-03-25T06:47:20.721Z,19.35
2019-03-25T06:48:20.889Z,19.35
2019-03-25T06:49:21.019Z,19.35
2019-03-25T06:50:20.553Z,19.35
2019-03-25T06:51:20.501Z,19.35
2019-03-25T06:52:20.543Z,19.35
2019-03-25T06:53:20.512Z,19.34
2019-03-25T06:54:20.612Z,19.34
2019-03-25T06:55:20.607Z,19.34
2019-03-25T06:56:20.589Z,19.33
2019-03-25T06:57:25.381Z,19.34
2019-03-25T06:58:20.703Z,19.33
2019-03-25T06:59:20.617Z,19.34
2019-03-25T07:00:20.616Z,19.34
2019-03-25T07:01:20.652Z,19.34
2019-03-25T07:02:20.666Z,19.34
2019-03-25T07:03:20.637Z,19.34
2019-03-25T07:04:20.699Z,19.34
2019-03-25T07:05:21.204Z,19.34
2019-03-25T07:06:20.706Z,19.34
2019-03-25T07:07:20.752Z,19.34
2019-03-25T07:08:20.751Z,19.33
2019-03-25T07:09:20.533Z,19.33
2019-03-25T07:10:20.646Z,19.33
2019-03-25T07:11:20.631Z,19.33
2019-03-25T07:12:20.565Z,19.33
2019-03-25T07:13:20.637Z,19.32
2019-03-25T07:14:20.679Z,19.33
2019-03-25T07:15:20.659Z,19.32
2019-03-25T07:16:20.653Z,19.33
2019-03-25T07:17:20.629Z,19.33
2019-03-25T07:18:20.639Z,19.32
2019-03-25T07:19:20.794Z,19.32
2019-03-25T07:20:20.677Z,19.33
2019-03-25T07:21:20.716Z,19.33
2019-03-25T07:22:20.743Z,19.33
2019-03-25T07:23:20.706Z,19.33
2019-03-25T07:24:20.774Z,19.33
2019-03-25T07:25:20.755Z,19.33
2019-03-25T07:26:20.808Z,19.32
2019-03-25T07:27:20.637Z,19.33
2019-03-25T07:28:20.541Z,19.34
2019-03-25T07:29:20.607Z,19.34
2019-03-25T07:30:20.503Z,19.34
2019-03-25T07:31:20.656Z,19.34
2019-03-25T07:32:20.657Z,19.34
2019-03-25T07:33:20.537Z,19.34
2019-03-25T07:34:20.635Z,19.34
2019-03-25T07:35:22.415Z,19.34
2019-03-25T07:36:20.577Z,19.28
2019-03-25T07:37:20.626Z,19.15
2019-03-25T07:38:20.618Z,19.09
2019-03-25T07:39:20.738Z,19.03
2019-03-25T07:40:20.679Z,18.98
2019-03-25T07:41:20.667Z,18.93
2019-03-25T07:42:20.682Z,18.92
2019-03-25T07:43:20.740Z,18.95
2019-03-25T07:44:20.692Z,18.98
2019-03-25T07:45:20.550Z,19.01
2019-03-25T07:46:20.522Z,19.03
2019-03-25T07:47:20.603Z,19.06
2019-03-25T07:48:20.798Z,19.07
2019-03-25T07:49:20.661Z,19.11
2019-03-25T07:50:20.549Z,19.12
2019-03-25T07:51:20.579Z,19.14
2019-03-25T07:52:20.716Z,19.16
2019-03-25T07:53:20.650Z,19.18
2019-03-25T07:54:20.669Z,19.2
2019-03-25T07:55:20.649Z,19.22
2019-03-25T07:56:20.637Z,19.23
2019-03-25T07:57:20.753Z,19.25
2019-03-25T07:58:20.730Z,19.27
2019-03-25T07:59:20.672Z,19.29
2019-03-25T08:00:20.762Z,19.3
2019-03-25T08:01:20.718Z,19.33
2019-03-25T08:02:20.724Z,19.34
2019-03-25T08:03:20.789Z,19.36
2019-03-25T08:04:20.574Z,19.38
2019-03-25T08:05:20.560Z,19.4
2019-03-25T08:06:20.477Z,19.41
2019-03-25T08:07:20.610Z,19.43
2019-03-25T08:08:20.506Z,19.44
2019-03-25T08:09:21.654Z,19.46
2019-03-25T08:10:20.638Z,19.48
2019-03-25T08:11:20.547Z,19.51
2019-03-25T08:12:20.578Z,19.53
2019-03-25T08:13:20.677Z,19.54
2019-03-25T08:14:20.602Z,19.55
2019-03-25T08:15:20.619Z,19.57
2019-03-25T08:16:20.876Z,19.58
2019-03-25T08:17:20.643Z,19.61
2019-03-25T08:18:20.619Z,19.64
2019-03-25T08:19:20.670Z,19.65
2019-03-25T08:20:20.675Z,19.67
2019-03-25T08:21:20.832Z,19.69
2019-03-25T08:22:20.833Z,19.72
2019-03-25T08:23:20.633Z,19.75
2019-03-25T08:24:20.490Z,19.77
2019-03-25T08:25:20.561Z,19.8
2019-03-25T08:26:20.542Z,19.83
2019-03-25T08:27:20.642Z,19.84
2019-03-25T08:28:20.580Z,19.86
2019-03-25T08:29:20.543Z,19.88
2019-03-25T08:30:20.608Z,19.91
2019-03-25T08:31:20.674Z,19.93
2019-03-25T08:32:20.733Z,19.94
2019-03-25T08:33:20.669Z,19.98
2019-03-25T08:34:20.774Z,20
2019-03-25T08:35:20.617Z,20.01
2019-03-25T08:36:20.698Z,20.04
2019-03-25T08:37:20.786Z,20.06
2019-03-25T08:38:20.656Z,20.06
2019-03-25T08:39:20.757Z,20.08
2019-03-25T08:40:20.769Z,20.09
2019-03-25T08:41:20.710Z,20.1
2019-03-25T08:42:20.440Z,20.11
2019-03-25T08:43:20.494Z,20.13
2019-03-25T08:44:20.595Z,20.14
2019-03-25T08:45:20.462Z,20.15
2019-03-25T08:46:20.532Z,20.17
2019-03-25T08:47:20.509Z,20.18
2019-03-25T08:48:20.522Z,20.17
2019-03-25T08:49:20.716Z,20.17
2019-03-25T08:50:20.540Z,20.18
2019-03-25T08:51:20.551Z,20.18
2019-03-25T08:52:20.640Z,20.18
2019-03-25T08:53:20.689Z,20.18
2019-03-25T08:54:20.752Z,20.19
2019-03-25T08:55:20.731Z,20.19
2019-03-25T08:56:20.633Z,20.19
2019-03-25T08:57:20.737Z,20.2
2019-03-25T08:58:20.700Z,20.2
2019-03-25T08:59:20.690Z,20.2
2019-03-25T09:00:20.710Z,20.2
2019-03-25T09:01:20.509Z,20.21
2019-03-25T09:02:20.591Z,20.19
2019-03-25T09:03:20.492Z,20.2
2019-03-25T09:04:20.547Z,20.21
2019-03-25T09:05:20.613Z,20.21
2019-03-25T09:06:20.546Z,20.21
2019-03-25T09:07:20.577Z,20.21
2019-03-25T09:08:20.664Z,20.2
2019-03-25T09:09:20.630Z,20.19
2019-03-25T09:10:20.593Z,20.19
2019-03-25T09:11:20.611Z,20.19
2019-03-25T09:12:20.591Z,20.2
2019-03-25T09:13:20.620Z,20.19
2019-03-25T09:14:21.178Z,20.19
2019-03-25T09:15:20.640Z,20.2
2019-03-25T09:16:20.723Z,20.19
2019-03-25T09:17:20.699Z,20.19
2019-03-25T09:18:20.728Z,20.19
2019-03-25T09:19:20.849Z,20.2
2019-03-25T09:20:20.449Z,20.2
2019-03-25T09:21:20.458Z,20.21
2019-03-25T09:22:20.499Z,20.2
2019-03-25T09:23:20.491Z,20.21
2019-03-25T09:24:20.583Z,20.21
2019-03-25T09:25:20.536Z,20.22
2019-03-25T09:26:20.531Z,20.23
2019-03-25T09:27:20.568Z,20.23
2019-03-25T09:28:24.364Z,20.24
2019-03-25T09:29:20.543Z,20.24
2019-03-25T09:30:20.668Z,20.24
2019-03-25T09:31:20.685Z,20.25
2019-03-25T09:32:20.604Z,20.27
2019-03-25T09:33:20.622Z,20.26
2019-03-25T09:34:20.636Z,20.27
2019-03-25T09:35:20.793Z,20.27
2019-03-25T09:36:20.845Z,20.27
2019-03-25T09:37:20.678Z,20.28
2019-03-25T09:38:20.771Z,20.29
2019-03-25T09:39:20.457Z,20.29
2019-03-25T09:40:20.509Z,20.29
2019-03-25T09:41:20.548Z,20.29
2019-03-25T09:42:20.558Z,20.31
2019-03-25T09:43:20.561Z,20.3
2019-03-25T09:44:20.615Z,20.31
2019-03-25T09:45:20.641Z,20.31
2019-03-25T09:46:20.586Z,20.32
2019-03-25T09:47:20.570Z,20.32
2019-03-25T09:48:20.707Z,20.34
2019-03-25T09:49:20.707Z,20.34
2019-03-25T09:50:20.739Z,20.35
2019-03-25T09:51:20.790Z,20.36
2019-03-25T09:52:20.776Z,20.35
2019-03-25T09:53:20.681Z,20.39
2019-03-25T09:54:20.965Z,20.39
2019-03-25T09:55:20.721Z,20.4
2019-03-25T09:56:20.846Z,20.41
2019-03-25T09:57:20.600Z,20.43
2019-03-25T09:58:20.472Z,20.44
2019-03-25T09:59:20.605Z,20.45
2019-03-25T10:00:20.472Z,20.47
2019-03-25T10:01:20.491Z,20.48
2019-03-25T10:02:20.510Z,20.48
2019-03-25T10:03:20.518Z,20.5
2019-03-25T10:04:20.547Z,20.51
2019-03-25T10:05:20.529Z,20.53
2019-03-25T10:06:20.611Z,20.52
2019-03-25T10:07:20.620Z,20.54
2019-03-25T10:08:20.576Z,20.56
2019-03-25T10:09:20.574Z,20.58
2019-03-25T10:10:20.635Z,20.6
2019-03-25T10:11:20.652Z,20.6
2019-03-25T10:12:20.773Z,20.61
2019-03-25T10:13:20.671Z,20.63
2019-03-25T10:14:20.648Z,20.64
2019-03-25T10:15:20.427Z,20.64
2019-03-25T10:16:20.516Z,20.66
2019-03-25T10:17:20.624Z,20.69
2019-03-25T10:18:20.486Z,20.69
2019-03-25T10:19:20.673Z,20.7
2019-03-25T10:20:20.934Z,20.71
2019-03-25T10:21:20.525Z,20.71
2019-03-25T10:22:20.696Z,20.72
2019-03-25T10:23:20.669Z,20.74
2019-03-25T10:24:27.520Z,20.76
2019-03-25T10:25:20.717Z,20.77
2019-03-25T10:26:20.613Z,20.79
2019-03-25T10:27:20.623Z,20.81
2019-03-25T10:28:20.773Z,20.79
2019-03-25T10:29:20.700Z,20.83
2019-03-25T10:30:20.674Z,20.8
2019-03-25T10:31:20.762Z,20.79
2019-03-25T10:32:20.537Z,20.79
2019-03-25T10:33:20.426Z,20.79
2019-03-25T10:34:20.609Z,20.78
2019-03-25T10:35:20.554Z,20.77
2019-03-25T10:36:20.510Z,20.78
2019-03-25T10:37:20.487Z,20.77
2019-03-25T10:38:20.488Z,20.77
2019-03-25T10:39:20.494Z,20.76
2019-03-25T10:40:20.537Z,20.76
2019-03-25T10:41:20.564Z,20.76
2019-03-25T10:42:20.630Z,20.74
2019-03-25T10:43:20.597Z,20.74
2019-03-25T10:44:20.575Z,20.74
2019-03-25T10:45:20.941Z,20.74
2019-03-25T10:46:21.066Z,20.73
2019-03-25T10:47:20.642Z,20.73
2019-03-25T10:48:20.659Z,20.73
2019-03-25T10:49:20.681Z,20.73
2019-03-25T10:50:20.562Z,20.73
2019-03-25T10:51:20.498Z,20.72
2019-03-25T10:52:20.524Z,20.71
2019-03-25T10:53:20.502Z,20.7
2019-03-25T10:54:20.524Z,20.71
2019-03-25T10:55:20.587Z,20.72
2019-03-25T10:56:20.579Z,20.72
2019-03-25T10:57:20.551Z,20.72
2019-03-25T10:58:20.549Z,20.71
2019-03-25T10:59:20.583Z,20.72
2019-03-25T11:00:20.610Z,20.73
2019-03-25T11:01:20.667Z,20.72
2019-03-25T11:02:20.719Z,20.73
2019-03-25T11:03:20.647Z,20.73
2019-03-25T11:04:20.808Z,20.73
2019-03-25T11:05:20.738Z,20.74
2019-03-25T11:06:20.716Z,20.73
2019-03-25T11:07:20.563Z,20.74
2019-03-25T11:08:20.491Z,20.74
2019-03-25T11:09:20.422Z,20.75
2019-03-25T11:10:20.506Z,20.75
2019-03-25T11:11:20.463Z,20.75
2019-03-25T11:12:20.506Z,20.78
2019-03-25T11:13:20.646Z,20.77
2019-03-25T11:14:20.461Z,20.77
2019-03-25T11:15:20.508Z,20.78
2019-03-25T11:16:20.522Z,20.78
2019-03-25T11:17:20.546Z,20.78
2019-03-25T11:18:20.555Z,20.79
2019-03-25T11:19:20.798Z,20.8
2019-03-25T11:20:20.596Z,20.8
2019-03-25T11:21:20.722Z,20.81
2019-03-25T11:22:20.699Z,20.81
2019-03-25T11:23:20.613Z,20.84
2019-03-25T11:24:20.660Z,20.81
2019-03-25T11:25:20.641Z,20.81
2019-03-25T11:26:20.431Z,20.8
2019-03-25T11:27:20.449Z,20.81
2019-03-25T11:28:21.534Z,20.81
2019-03-25T11:29:20.596Z,20.8
2019-03-25T11:30:20.571Z,20.8
2019-03-25T11:31:20.589Z,20.8
2019-03-25T11:32:20.529Z,20.79
2019-03-25T11:33:20.581Z,20.81
2019-03-25T11:34:20.611Z,20.79
2019-03-25T11:35:20.596Z,20.79
2019-03-25T11:36:20.564Z,20.8
2019-03-25T11:37:20.693Z,20.79
2019-03-25T11:38:20.946Z,20.86
2019-03-25T11:39:20.712Z,20.82
2019-03-25T11:40:20.625Z,20.81
2019-03-25T11:41:20.643Z,20.79
2019-03-25T11:42:20.642Z,20.8
2019-03-25T11:43:20.549Z,20.8
2019-03-25T11:44:20.400Z,20.79
2019-03-25T11:45:20.423Z,20.79
2019-03-25T11:46:20.435Z,20.79
2019-03-25T11:47:20.586Z,20.78
2019-03-25T11:48:20.451Z,20.79
2019-03-25T11:49:20.589Z,20.79
2019-03-25T11:50:20.569Z,20.79
2019-03-25T11:51:20.519Z,20.79
2019-03-25T11:52:20.506Z,20.78
2019-03-25T11:53:20.520Z,20.78
2019-03-25T11:54:20.526Z,20.78
2019-03-25T11:55:20.545Z,20.78
2019-03-25T11:56:20.563Z,20.77
2019-03-25T11:57:20.591Z,20.78
2019-03-25T11:58:20.612Z,20.77
2019-03-25T11:59:20.625Z,20.76
2019-03-25T12:00:20.633Z,20.77
2019-03-25T12:01:20.552Z,20.76
2019-03-25T12:02:20.443Z,20.75
2019-03-25T12:03:20.441Z,20.75
2019-03-25T12:04:20.613Z,20.73
2019-03-25T12:05:20.487Z,20.73
2019-03-25T12:06:20.598Z,20.72
2019-03-25T12:07:20.558Z,20.71
2019-03-25T12:08:20.608Z,20.7
2019-03-25T12:09:20.542Z,20.71
2019-03-25T12:10:20.587Z,20.7
2019-03-25T12:11:20.916Z,20.7
2019-03-25T12:12:20.609Z,20.72
2019-03-25T12:13:20.621Z,20.71
2019-03-25T12:14:20.614Z,20.71
2019-03-25T12:15:20.708Z,20.71
2019-03-25T12:16:20.774Z,20.71
2019-03-25T12:17:20.649Z,20.71
2019-03-25T12:18:20.539Z,20.69
2019-03-25T12:19:20.444Z,20.71
2019-03-25T12:20:20.599Z,20.7
2019-03-25T12:21:20.418Z,20.71
2019-03-25T12:22:20.459Z,20.72
2019-03-25T12:23:26.143Z,20.72
2019-03-25T12:24:20.795Z,20.72
2019-03-25T12:25:20.525Z,20.72
2019-03-25T12:26:20.517Z,20.72
2019-03-25T12:27:20.535Z,20.72
2019-03-25T12:28:20.895Z,20.73
2019-03-25T12:29:29.535Z,20.74
2019-03-25T12:30:20.637Z,20.74
2019-03-25T12:31:20.571Z,20.74
2019-03-25T12:32:20.789Z,20.74
2019-03-25T12:33:20.815Z,20.74
2019-03-25T12:34:20.719Z,20.75
2019-03-25T12:35:20.633Z,20.75
2019-03-25T12:36:20.477Z,20.76
2019-03-25T12:37:20.542Z,20.76
2019-03-25T12:38:20.515Z,20.78
2019-03-25T12:39:20.453Z,20.77
2019-03-25T12:40:20.489Z,20.77
2019-03-25T12:41:20.598Z,20.77
2019-03-25T12:42:20.536Z,20.78
2019-03-25T12:43:20.513Z,20.78
2019-03-25T12:44:20.570Z,20.78
2019-03-25T12:45:20.547Z,20.79
2019-03-25T12:46:20.748Z,20.78
2019-03-25T12:47:20.580Z,20.79
2019-03-25T12:48:20.684Z,20.79
2019-03-25T12:49:20.622Z,20.79
2019-03-25T12:50:20.687Z,20.79
2019-03-25T12:51:20.683Z,20.8
2019-03-25T12:52:20.555Z,20.79
2019-03-25T12:53:20.560Z,20.79
2019-03-25T12:54:20.507Z,20.8
2019-03-25T12:55:20.965Z,20.79